Bannockburn, Illinois
Current Conditions -  °F | °C
As of 12:52 PM on Saturday 25 Oct 2014 (Local Time) from KPWK Reporting Station
Clear Clear  
Wind Chill: 71°   Ceiling: Unl
Heat Index: 71°   Visibility: 10mi
Dew Point: 37°   Wind: 13mph
Humidity: 29%   Direction: 290°WNW
Pressure: 29.95"   Gusts: 22mph
Location:  42.1724°N, 87.8767°W
Report Text: KPWK 251752Z 29011G19KT 10SM CLR 22/03 A2995 RMK AO2 SLP138 T02170028 10217 20133 58003
Loading
Personal Weather Stations






























Interactive Weather Map
Tropical Storm Tracking
New forecast layout! Learn more

10-Day Weather Forecast

Advertisements
Track Severe Weather on mobile